Sharon, Michigan
Current Conditions -  °F | °C
As of 6:53 AM on Tuesday 27 Jan 2015 (Local Time) from KARB Reporting Station
Few Clouds Few Clouds  
Wind Chill:   Ceiling: Unl
Heat Index: 12°   Visibility: 10mi
Dew Point:   Wind: 6mph
Humidity: 84%   Direction: 20°NNE
Pressure: 30.03"   Gusts: NA
Location:  42.1633°N, 84.0265°W
Report Text: KARB 271153Z AUTO 02005KT 10SM FEW110 M11/M13 A3003 RMK AO2 SLP185 I6000 T11111133 11106 21150 53018
Loading
Personal Weather Stations






























Interactive Weather Map New forecast layout! Learn more

10-Day Weather Forecast

Advertisements
Track Severe Weather on mobile